Hidden Valley, PA (15502)

4:53 PM EDT on July 30, 2016 (GMT -0400)
northwest of court house 1 1/2 blocks | | Change Station

Elev 2139 ft 40.01 °N, 79.08 °W | Updated 14 minutes ago

Mostly Cloudy
Mostly Cloudy
71.2 °F
Feels Like 71.2 °F
N
2.7
Wind Variable Wind from West

Today
High -- | Low -- °F
--% Chance of Precip.
Yesterday
High -- | Low -- °F
Precip. -- in
Pressure 30.00 in
Visibility 10.0 miles
Clouds Few 600 ft
Scattered Clouds 1200 ft
Mostly Cloudy 12000 ft
Dew Point 67 °F
Humidity 86%
Rainfall 0.89 in
Snow Depth Not available.
6:13 AM 8:31 PM
Waning Crescent, 11% visible
SPECI KJST 302041Z AUTO 23003KT 10SM FEW006 SCT012 BKN120 22/19 A3000 RMK AO2 RAE29 P0001 T02170189
Pressure 30.00 in
Visibility 10.0 miles
Clouds Few 600 ft
Scattered Clouds 1200 ft
Mostly Cloudy 12000 ft
Dew Point 67 °F
Humidity 86%
Rainfall 0.89 in
Snow Depth Not available.
6:13 AM 8:31 PM
Waning Crescent, 11% visible
SPECI KJST 302041Z AUTO 23003KT 10SM FEW006 SCT012 BKN120 22/19 A3000 RMK AO2 RAE29 P0001 T02170189

10-Day Weather Forecast

Almanac

Astronomy

Jul. 30, 2016 Rise Set
Actual Time
Civil Twilight
Nautical Twilight
Astronomical Twilight
Moon
Length of Visible Light
Length of Day
Tomorrow will be .
, % of the Moon is Illuminated

Today's Extremes

State Highs State Lows

Community

WunderPhotos

Upload Photos

1,928,632 photos uploaded!

WunderBlog® & News

Nearby

Air Quality

  Air Quality AQ Index Pollutant
Not available.

Snow Depth

Station Depth Elevation

Earthquake Activity

City Distance Mag. Time & Date
Minimum magnitude displayed is 2.5.

Coastal Water Temperatures

Place Temperature

Stations

Nearby Weather Stations

Station Location Temp. Windchill Dew Point Humidity Wind Precip. Elev Updated Type
                   

Watches & Warnings

There are currently no watches in effect.